createdAt,value
2017-11-26T05:07:30.934Z,78.19
2017-11-26T05:09:58.402Z,78.55
2017-11-26T05:12:26.734Z,78.70
2017-11-26T05:14:54.201Z,79.00
2017-11-26T05:17:21.666Z,79.23
2017-11-26T05:19:49.161Z,79.57
2017-11-26T05:22:17.515Z,79.82
2017-11-26T05:24:45.007Z,80.28
2017-11-26T05:27:12.482Z,80.52
2017-11-26T05:29:39.951Z,80.08
2017-11-26T05:32:07.440Z,80.42
2017-11-26T05:34:34.906Z,80.75
2017-11-26T05:37:02.390Z,81.01
2017-11-26T05:39:29.853Z,80.46
2017-11-26T05:41:57.325Z,80.39
2017-11-26T05:44:24.810Z,79.95
2017-11-26T05:46:52.278Z,80.04
2017-11-26T05:49:19.742Z,80.22
2017-11-26T05:51:47.226Z,79.58
2017-11-26T05:54:14.692Z,79.32
2017-11-26T05:56:42.188Z,77.02
2017-11-26T05:59:09.674Z,78.16
2017-11-26T06:01:37.142Z,76.93
2017-11-26T06:04:04.614Z,76.15
2017-11-26T06:06:32.111Z,76.00
2017-11-26T06:08:59.586Z,76.27
2017-11-26T06:11:27.059Z,75.80
2017-11-26T06:13:54.545Z,75.62
2017-11-26T06:16:22.013Z,76.31
2017-11-26T06:18:49.505Z,75.38
2017-11-26T06:21:16.971Z,74.75
2017-11-26T06:23:44.451Z,74.59
2017-11-26T06:26:11.945Z,74.04
2017-11-26T06:28:39.412Z,74.53
2017-11-26T06:31:06.878Z,75.52
2017-11-26T06:33:34.362Z,72.84
2017-11-26T06:36:01.826Z,74.13
2017-11-26T06:38:29.304Z,72.10
2017-11-26T06:40:56.792Z,71.21
2017-11-26T06:43:24.261Z,71.28
2017-11-26T06:45:51.733Z,71.30
2017-11-26T06:48:19.218Z,72.23
2017-11-26T06:50:46.686Z,72.65
2017-11-26T06:53:14.154Z,72.73
2017-11-26T06:55:41.638Z,73.51
2017-11-26T06:58:09.107Z,73.78
2017-11-26T07:00:36.599Z,73.83
2017-11-26T07:03:04.099Z,74.84
2017-11-26T07:05:31.553Z,74.99
2017-11-26T07:07:59.041Z,74.14
2017-11-26T07:10:26.513Z,73.73
2017-11-26T07:12:53.982Z,75.03
2017-11-26T07:15:21.818Z,74.92
2017-11-26T07:17:49.286Z,75.70
2017-11-26T07:20:16.756Z,74.99
2017-11-26T07:22:44.241Z,74.39
2017-11-26T07:25:11.706Z,72.56
2017-11-26T07:27:39.166Z,73.40
2017-11-26T07:30:06.653Z,73.68
2017-11-26T07:32:34.119Z,72.60
2017-11-26T07:35:01.625Z,72.83
2017-11-26T07:37:29.551Z,73.20
2017-11-26T07:39:57.035Z,72.81
2017-11-26T07:42:24.523Z,71.76
2017-11-26T07:44:51.994Z,71.92
2017-11-26T07:47:19.479Z,71.18
2017-11-26T07:49:46.946Z,71.03
2017-11-26T07:52:14.478Z,71.03
2017-11-26T07:54:41.959Z,69.50
2017-11-26T07:57:09.426Z,69.83
2017-11-26T07:59:36.914Z,69.16
2017-11-26T08:02:04.375Z,68.68
2017-11-26T08:04:31.835Z,69.18
2017-11-26T08:06:59.322Z,68.88
2017-11-26T08:09:26.794Z,68.17
2017-11-26T08:11:54.266Z,65.75
2017-11-26T08:14:21.746Z,66.17
2017-11-26T08:16:49.206Z,67.01
2017-11-26T08:19:16.732Z,65.72
2017-11-26T08:21:44.205Z,65.55
2017-11-26T08:24:11.670Z,65.39
2017-11-26T08:26:39.143Z,64.55
2017-11-26T08:29:06.640Z,65.61
2017-11-26T08:31:34.109Z,65.67
2017-11-26T08:34:01.571Z,65.43
2017-11-26T08:36:29.050Z,65.50
2017-11-26T08:38:56.520Z,65.27
2017-11-26T08:41:23.986Z,66.21
2017-11-26T08:43:51.475Z,65.87
2017-11-26T08:46:18.944Z,64.60
2017-11-26T08:48:46.413Z,65.13
2017-11-26T08:51:13.892Z,65.66
2017-11-26T08:53:41.350Z,64.62
2017-11-26T08:56:08.839Z,64.43
2017-11-26T08:58:36.303Z,63.57
2017-11-26T09:01:03.775Z,65.49
2017-11-26T09:03:31.248Z,65.00
2017-11-26T09:05:58.723Z,65.67
2017-11-26T09:08:26.686Z,65.58
2017-11-26T09:10:54.174Z,65.88
2017-11-26T09:13:21.638Z,65.01
2017-11-26T09:15:49.102Z,66.37
2017-11-26T09:18:16.627Z,65.98
2017-11-26T09:20:44.089Z,66.64
2017-11-26T09:23:11.553Z,66.75
2017-11-26T09:25:39.038Z,67.07
2017-11-26T09:28:06.494Z,66.71
2017-11-26T09:30:33.975Z,65.92
2017-11-26T09:33:01.454Z,66.50
2017-11-26T09:35:28.928Z,66.46
2017-11-26T09:37:56.410Z,67.24
2017-11-26T09:40:23.870Z,66.66
2017-11-26T09:42:51.335Z,66.84
2017-11-26T09:45:18.815Z,66.82
2017-11-26T09:47:46.286Z,65.33
2017-11-26T09:50:13.746Z,64.65
2017-11-26T09:52:41.221Z,66.32
2017-11-26T09:55:08.689Z,65.36
2017-11-26T09:57:36.205Z,64.28
2017-11-26T10:00:03.672Z,64.02
2017-11-26T10:02:32.115Z,62.93
2017-11-26T10:04:59.594Z,61.11
2017-11-26T10:07:27.053Z,61.45
2017-11-26T10:09:54.523Z,62.92
2017-11-26T10:12:22.071Z,63.33
2017-11-26T10:14:49.529Z,63.18
2017-11-26T10:17:17.010Z,62.39
2017-11-26T10:19:44.475Z,63.05
2017-11-26T10:22:11.934Z,61.65
2017-11-26T10:24:39.414Z,62.68
2017-11-26T10:27:06.879Z,62.51
2017-11-26T10:29:34.350Z,63.01
2017-11-26T10:32:01.835Z,62.69
2017-11-26T10:34:29.295Z,62.84
2017-11-26T10:36:56.772Z,63.33
2017-11-26T10:39:24.258Z,63.08
2017-11-26T10:41:51.722Z,63.73
2017-11-26T10:44:19.178Z,63.49
2017-11-26T10:46:46.770Z,63.86
2017-11-26T10:49:14.229Z,61.55
2017-11-26T10:51:41.690Z,62.10
2017-11-26T10:54:09.167Z,62.91
2017-11-26T10:56:36.635Z,63.15
2017-11-26T10:59:04.090Z,62.67
2017-11-26T11:01:31.577Z,64.32
2017-11-26T11:03:59.038Z,65.47
2017-11-26T11:06:26.501Z,65.88
2017-11-26T11:08:53.979Z,66.68
2017-11-26T11:11:21.439Z,68.54
2017-11-26T11:13:49.060Z,68.73
2017-11-26T11:16:16.525Z,69.62
2017-11-26T11:18:43.987Z,69.66
2017-11-26T11:21:11.474Z,69.73
2017-11-26T11:23:38.934Z,68.37
2017-11-26T11:26:06.395Z,68.47
2017-11-26T11:28:33.870Z,66.95
2017-11-26T11:31:01.334Z,64.39
2017-11-26T11:33:28.794Z,58.40
2017-11-26T11:35:56.271Z,56.11
2017-11-26T11:38:23.734Z,57.01
2017-11-26T11:40:51.191Z,61.10
2017-11-26T11:43:18.697Z,61.45
2017-11-26T11:45:46.157Z,61.96
2017-11-26T11:48:13.660Z,62.69
2017-11-26T11:50:41.133Z,60.41
2017-11-26T11:53:08.597Z,59.94
2017-11-26T11:55:36.053Z,58.71
2017-11-26T11:58:03.535Z,56.70
2017-11-26T12:00:31.054Z,57.78
2017-11-26T12:02:58.514Z,59.34
2017-11-26T12:05:25.990Z,59.11
2017-11-26T12:07:53.449Z,60.39
2017-11-26T12:10:20.926Z,61.02
2017-11-26T12:12:48.393Z,62.12
2017-11-26T12:15:15.850Z,62.14
2017-11-26T12:17:43.329Z,62.29
2017-11-26T12:20:10.789Z,63.05
2017-11-26T12:22:38.387Z,65.76
2017-11-26T12:25:05.853Z,71.08
2017-11-26T12:27:33.317Z,70.23
2017-11-26T12:30:00.794Z,68.60
2017-11-26T12:32:28.256Z,66.50
2017-11-26T12:34:55.710Z,66.59
2017-11-26T12:37:23.192Z,65.92
2017-11-26T12:39:50.653Z,66.47
2017-11-26T12:42:18.132Z,65.80
2017-11-26T12:44:45.600Z,64.88
2017-11-26T12:47:13.080Z,65.90
2017-11-26T12:53:19.859Z,66.74
2017-11-26T12:55:47.414Z,68.61
2017-11-26T12:58:14.913Z,70.52
2017-11-26T13:00:42.535Z,71.04
2017-11-26T13:03:10.522Z,72.38
2017-11-26T13:05:38.012Z,72.45
2017-11-26T13:08:05.747Z,72.82
2017-11-26T13:10:33.220Z,72.08
2017-11-26T13:13:00.982Z,72.62
2017-11-26T13:15:28.731Z,71.77
2017-11-26T13:17:56.210Z,71.75
2017-11-26T13:20:23.873Z,71.02
2017-11-26T13:22:51.470Z,70.58
2017-11-26T13:25:18.939Z,68.71
2017-11-26T13:27:46.428Z,66.79
2017-11-26T13:30:13.939Z,67.64
2017-11-26T13:32:41.448Z,66.64
2017-11-26T13:35:09.078Z,65.88
2017-11-26T13:37:36.590Z,65.37
2017-11-26T13:40:04.071Z,64.39
2017-11-26T13:42:31.574Z,63.48
2017-11-26T13:44:59.068Z,63.12
2017-11-26T13:47:26.542Z,63.60
2017-11-26T13:49:54.351Z,62.29
2017-11-26T13:52:21.844Z,62.76
2017-11-26T13:54:49.316Z,62.56
2017-11-26T13:57:16.812Z,62.43
2017-11-26T13:59:44.490Z,62.00
2017-11-26T14:02:12.208Z,62.20
2017-11-26T14:04:39.746Z,62.21
2017-11-26T14:07:07.380Z,62.48
2017-11-26T14:09:35.367Z,62.54
2017-11-26T14:12:02.850Z,63.40
2017-11-26T14:14:30.328Z,62.58
2017-11-26T14:16:58.219Z,63.12
2017-11-26T14:19:25.686Z,63.16
2017-11-26T14:21:53.157Z,63.61
2017-11-26T14:24:20.640Z,64.45
2017-11-26T14:26:48.126Z,64.85
2017-11-26T14:29:15.914Z,65.10
2017-11-26T14:31:43.379Z,65.95
2017-11-26T14:34:10.861Z,65.73
2017-11-26T14:36:38.359Z,65.66
2017-11-26T14:39:05.828Z,65.94
2017-11-26T14:41:33.312Z,66.24
2017-11-26T14:44:00.803Z,66.65
2017-11-26T14:46:28.284Z,67.26
2017-11-26T14:48:55.860Z,67.90
2017-11-26T14:51:23.639Z,67.77
2017-11-26T14:53:51.116Z,67.70
2017-11-26T14:56:18.612Z,67.77
2017-11-26T14:58:46.078Z,68.07
2017-11-26T15:01:13.562Z,68.22
2017-11-26T15:03:41.072Z,68.18
2017-11-26T15:06:08.539Z,68.76
2017-11-26T15:08:36.030Z,68.85
2017-11-26T15:11:03.507Z,69.44
2017-11-26T15:13:31.125Z,69.73
2017-11-26T15:15:58.628Z,70.47
2017-11-26T15:18:26.236Z,70.69
2017-11-26T15:20:53.727Z,70.36
2017-11-26T15:23:21.251Z,70.62
2017-11-26T15:25:48.727Z,71.04
2017-11-26T15:28:16.206Z,70.96
2017-11-26T15:30:43.835Z,71.53
2017-11-26T15:33:11.328Z,72.57
2017-11-26T15:35:38.791Z,73.03
2017-11-26T15:38:06.267Z,74.67
2017-11-26T15:40:33.925Z,75.89
2017-11-26T15:43:01.410Z,76.63
2017-11-26T15:45:29.001Z,76.83
2017-11-26T15:47:56.990Z,76.87
2017-11-26T15:50:24.483Z,77.42
2017-11-26T15:52:52.046Z,77.31
2017-11-26T15:55:19.531Z,77.71
2017-11-26T15:57:47.024Z,76.60
2017-11-26T16:00:23.564Z,76.47
2017-11-26T16:02:51.456Z,74.95
2017-11-26T16:05:18.927Z,74.63
2017-11-26T16:07:46.402Z,73.92
2017-11-26T16:10:13.899Z,73.04
2017-11-26T16:12:41.691Z,73.45
2017-11-26T16:15:09.459Z,72.86
2017-11-26T16:17:36.933Z,72.83
2017-11-26T16:20:04.403Z,72.01
2017-11-26T16:22:31.907Z,72.47
2017-11-26T16:24:59.378Z,72.77
2017-11-26T16:27:26.875Z,72.63
2017-11-26T16:29:54.352Z,72.94
2017-11-26T16:32:21.819Z,72.41
2017-11-26T16:34:49.308Z,72.06
2017-11-26T16:37:16.775Z,72.63
2017-11-26T16:39:44.263Z,72.73
2017-11-26T16:42:11.742Z,71.87
2017-11-26T16:44:39.216Z,72.92
2017-11-26T16:47:06.710Z,74.27
2017-11-26T16:49:34.468Z,78.20
2017-11-26T16:52:01.964Z,80.01
2017-11-26T16:54:29.451Z,81.05
2017-11-26T16:56:56.932Z,82.53
2017-11-26T16:59:24.432Z,82.44
2017-11-26T17:01:51.911Z,82.38
2017-11-26T17:04:19.387Z,82.07
2017-11-26T17:06:47.176Z,82.60
2017-11-26T17:09:14.647Z,82.20
2017-11-26T17:11:42.143Z,81.90
2017-11-26T17:14:09.851Z,82.45
2017-11-26T17:16:37.323Z,83.15
2017-11-26T17:19:04.820Z,84.30
2017-11-26T17:21:32.300Z,85.49
2017-11-26T17:24:00.092Z,85.21
2017-11-26T17:26:27.579Z,85.42
2017-11-26T17:28:55.062Z,85.53
2017-11-26T17:31:22.882Z,86.03
2017-11-26T17:33:50.363Z,87.42
2017-11-26T17:36:17.863Z,88.32
2017-11-26T17:38:45.362Z,88.35
2017-11-26T17:41:12.834Z,87.66
2017-11-26T17:43:40.339Z,87.85
2017-11-26T17:46:07.823Z,87.54
2017-11-26T17:48:35.343Z,86.99
2017-11-26T17:51:02.831Z,87.16
2017-11-26T17:53:30.311Z,87.53
2017-11-26T17:55:57.816Z,87.19
2017-11-26T17:58:25.300Z,87.35
2017-11-26T18:00:53.067Z,86.03
2017-11-26T18:03:20.559Z,86.18
2017-11-26T18:05:48.287Z,85.70
2017-11-26T18:08:16.051Z,84.73
2017-11-26T18:10:43.544Z,84.72
2017-11-26T18:13:11.275Z,84.83
2017-11-26T18:15:38.775Z,84.45
2017-11-26T18:18:06.260Z,84.82
2017-11-26T18:20:33.743Z,84.74
2017-11-26T18:23:01.249Z,84.88
2017-11-26T18:25:29.067Z,84.84
2017-11-26T18:27:56.579Z,84.12
2017-11-26T18:30:24.115Z,82.59
2017-11-26T18:32:51.595Z,81.32
2017-11-26T18:35:19.108Z,81.83
2017-11-26T18:37:46.599Z,80.16
2017-11-26T18:40:14.318Z,80.77
2017-11-26T18:42:41.822Z,80.18
2017-11-26T18:45:09.300Z,80.69
2017-11-26T18:47:36.771Z,80.38
2017-11-26T18:50:04.271Z,80.16
2017-11-26T18:52:31.748Z,80.49
2017-11-26T18:54:59.224Z,79.78
2017-11-26T18:57:26.723Z,79.26
2017-11-26T18:59:54.211Z,79.31
2017-11-26T19:02:21.700Z,79.44
2017-11-26T19:04:49.497Z,79.20
2017-11-26T19:07:16.979Z,79.69
2017-11-26T19:09:44.473Z,79.45
2017-11-26T19:12:11.976Z,80.44
2017-11-26T19:14:39.455Z,80.40
2017-11-26T19:17:06.969Z,80.91
2017-11-26T19:19:34.440Z,80.99
2017-11-26T19:22:01.925Z,81.66
2017-11-26T19:24:29.407Z,81.74
2017-11-26T19:26:56.891Z,82.74
2017-11-26T19:29:24.435Z,82.61
2017-11-26T19:31:51.918Z,82.17
2017-11-26T19:34:19.710Z,82.90
2017-11-26T19:36:47.199Z,82.84
2017-11-26T19:39:14.687Z,83.07
2017-11-26T19:41:42.182Z,82.98
2017-11-26T19:44:09.940Z,82.94
2017-11-26T19:46:37.812Z,82.92
2017-11-26T19:49:05.774Z,82.80
2017-11-26T19:51:33.540Z,83.03
2017-11-26T19:54:01.059Z,83.08
2017-11-26T19:56:28.557Z,82.45
2017-11-26T19:58:58.569Z,82.42
2017-11-26T20:01:26.060Z,82.49
2017-11-26T20:03:53.655Z,82.45
2017-11-26T20:06:21.451Z,82.71
2017-11-26T20:08:48.932Z,83.24
2017-11-26T20:11:16.430Z,83.13
2017-11-26T20:13:44.867Z,83.13
2017-11-26T20:16:12.371Z,82.63
2017-11-26T20:18:40.167Z,83.00
2017-11-26T20:21:07.660Z,82.79
2017-11-26T20:23:35.143Z,82.83
2017-11-26T20:26:02.641Z,82.53
2017-11-26T20:28:30.223Z,83.02
2017-11-26T20:30:57.727Z,82.75
2017-11-26T20:33:25.223Z,83.13
2017-11-26T20:35:52.901Z,83.25
2017-11-26T20:38:20.379Z,82.96
2017-11-26T20:40:47.888Z,82.78
2017-11-26T20:43:15.368Z,82.51
2017-11-26T20:45:42.852Z,82.56
2017-11-26T20:48:10.387Z,82.65
2017-11-26T20:50:37.946Z,82.32
2017-11-26T20:53:05.462Z,82.50
2017-11-26T20:55:32.952Z,82.55
2017-11-26T20:58:00.706Z,82.80
2017-11-26T21:00:28.473Z,82.25
2017-11-26T21:02:56.241Z,82.14
2017-11-26T21:05:23.726Z,81.95
2017-11-26T21:07:51.554Z,82.34
2017-11-26T21:10:19.320Z,82.64
2017-11-26T21:12:46.795Z,82.51
2017-11-26T21:15:14.546Z,82.83
2017-11-26T21:17:42.027Z,82.08
2017-11-26T21:20:09.507Z,82.64
2017-11-26T21:22:37.015Z,82.89
2017-11-26T21:25:04.497Z,82.83
2017-11-26T21:27:31.975Z,82.56
2017-11-26T21:29:59.479Z,82.67
2017-11-26T21:32:26.960Z,82.23
2017-11-26T21:34:54.442Z,81.93
2017-11-26T21:37:21.945Z,82.04
2017-11-26T21:39:49.445Z,82.03
2017-11-26T21:42:16.940Z,81.87
2017-11-26T21:44:44.435Z,82.22
2017-11-26T21:47:11.911Z,82.13
2017-11-26T21:49:39.411Z,81.96
2017-11-26T21:52:07.212Z,82.44
2017-11-26T21:54:34.690Z,82.35
2017-11-26T21:57:02.197Z,82.10
2017-11-26T21:59:29.676Z,82.39
2017-11-26T22:01:57.481Z,81.92
2017-11-26T22:04:24.975Z,82.30
2017-11-26T22:06:52.456Z,82.22
2017-11-26T22:09:20.227Z,82.32
2017-11-26T22:11:47.807Z,81.38
2017-11-26T22:14:15.284Z,81.58
2017-11-26T22:16:43.112Z,81.73
2017-11-26T22:19:10.595Z,82.06
2017-11-26T22:21:38.097Z,82.10
2017-11-26T22:24:05.591Z,80.93
2017-11-26T22:26:33.136Z,81.42
2017-11-26T22:29:00.626Z,80.56
2017-11-26T22:31:28.107Z,81.38
2017-11-26T22:33:55.620Z,80.96
2017-11-26T22:36:23.108Z,81.08
2017-11-26T22:38:50.587Z,80.96
2017-11-26T22:41:18.079Z,81.23
2017-11-26T22:43:45.556Z,80.48
2017-11-26T22:46:13.052Z,80.60
2017-11-26T22:48:40.523Z,80.12
2017-11-26T22:51:08.002Z,80.24
2017-11-26T22:53:35.508Z,80.41
2017-11-26T22:56:03.009Z,80.09
2017-11-26T22:58:30.507Z,80.48
2017-11-26T23:00:57.979Z,80.74
2017-11-26T23:03:25.455Z,80.53
2017-11-26T23:05:52.954Z,79.73
2017-11-26T23:08:20.426Z,79.31
2017-11-26T23:10:47.921Z,79.74
2017-11-26T23:13:15.415Z,79.78
2017-11-26T23:15:42.895Z,79.37
2017-11-26T23:18:10.389Z,79.36
2017-11-26T23:20:37.862Z,79.00
2017-11-26T23:23:05.375Z,79.51
2017-11-26T23:25:32.880Z,79.34
2017-11-26T23:28:00.360Z,79.59
2017-11-26T23:30:27.867Z,78.83
2017-11-26T23:32:55.334Z,79.16
2017-11-26T23:35:22.844Z,79.90
2017-11-26T23:37:50.318Z,80.04
2017-11-26T23:40:17.810Z,79.39
2017-11-26T23:42:45.306Z,79.55
2017-11-26T23:45:12.783Z,80.00
2017-11-26T23:47:40.280Z,79.27
2017-11-26T23:50:07.824Z,79.61
2017-11-26T23:52:35.304Z,79.54
2017-11-26T23:55:02.794Z,79.93
2017-11-26T23:57:30.571Z,79.57
2017-11-26T23:59:58.339Z,79.46
